sensor_id;sensor_type;location;lat;lon;timestamp;pressure;altitude;pressure_sealevel;temperature;humidity
19128;BME280;9696;53.686;10.094;2023-05-09T00:00:46;101897.25;;;12.20;100.00
19128;BME280;9696;53.686;10.094;2023-05-09T00:03:16;101891.69;;;12.36;100.00
19128;BME280;9696;53.686;10.094;2023-05-09T00:05:45;101901.53;;;12.21;100.00
19128;BME280;9696;53.686;10.094;2023-05-09T00:08:14;101902.09;;;12.14;100.00
19128;BME280;9696;53.686;10.094;2023-05-09T00:10:45;101903.56;;;12.18;100.00
19128;BME280;9696;53.686;10.094;2023-05-09T00:13:14;101898.19;;;12.19;100.00
19128;BME280;9696;53.686;10.094;2023-05-09T00:15:43;101898.19;;;12.19;100.00
19128;BME280;9696;53.686;10.094;2023-05-09T00:18:13;101899.09;;;12.07;100.00
19128;BME280;9696;53.686;10.094;2023-05-09T00:20:42;101897.75;;;12.02;100.00
19128;BME280;9696;53.686;10.094;2023-05-09T00:23:11;101899.06;;;11.96;100.00
19128;BME280;9696;53.686;10.094;2023-05-09T00:25:41;101908.97;;;11.93;100.00
19128;BME280;9696;53.686;10.094;2023-05-09T00:28:11;101901.03;;;11.69;100.00
19128;BME280;9696;53.686;10.094;2023-05-09T00:30:40;101890.09;;;11.75;100.00
19128;BME280;9696;53.686;10.094;2023-05-09T00:33:10;101895.66;;;11.70;100.00
19128;BME280;9696;53.686;10.094;2023-05-09T00:35:39;101881.81;;;11.68;100.00
19128;BME280;9696;53.686;10.094;2023-05-09T00:38:09;101876.97;;;11.62;100.00
19128;BME280;9696;53.686;10.094;2023-05-09T00:40:38;101878.38;;;11.55;100.00
19128;BME280;9696;53.686;10.094;2023-05-09T00:43:07;101870.50;;;11.55;100.00
19128;BME280;9696;53.686;10.094;2023-05-09T00:45:38;101861.72;;;11.44;100.00
19128;BME280;9696;53.686;10.094;2023-05-09T00:48:07;101860.91;;;11.54;100.00
19128;BME280;9696;53.686;10.094;2023-05-09T00:50:36;101855.19;;;11.49;100.00
19128;BME280;9696;53.686;10.094;2023-05-09T00:53:06;101867.59;;;11.34;100.00
19128;BME280;9696;53.686;10.094;2023-05-09T00:55:35;101860.25;;;11.40;100.00
19128;BME280;9696;53.686;10.094;2023-05-09T00:58:04;101856.69;;;11.41;100.00
19128;BME280;9696;53.686;10.094;2023-05-09T01:00:34;101852.28;;;11.41;100.00
19128;BME280;9696;53.686;10.094;2023-05-09T01:03:05;101853.88;;;11.18;100.00
19128;BME280;9696;53.686;10.094;2023-05-09T01:05:39;101843.69;;;11.26;100.00
19128;BME280;9696;53.686;10.094;2023-05-09T01:08:20;101843.94;;;11.11;100.00
19128;BME280;9696;53.686;10.094;2023-05-09T01:10:57;101836.31;;;11.31;100.00
19128;BME280;9696;53.686;10.094;2023-05-09T01:13:34;101843.28;;;11.20;100.00
19128;BME280;9696;53.686;10.094;2023-05-09T01:16:09;101835.97;;;11.12;100.00
19128;BME280;9696;53.686;10.094;2023-05-09T01:18:48;101837.34;;;11.05;100.00
19128;BME280;9696;53.686;10.094;2023-05-09T01:21:22;101827.16;;;11.01;100.00
19128;BME280;9696;53.686;10.094;2023-05-09T01:27:05;101811.88;;;10.69;100.00
19128;BME280;9696;53.686;10.094;2023-05-09T01:29:43;101808.50;;;10.80;100.00
19128;BME280;9696;53.686;10.094;2023-05-09T01:32:16;101812.19;;;10.77;100.00
19128;BME280;9696;53.686;10.094;2023-05-09T01:34:48;101818.69;;;10.72;100.00
19128;BME280;9696;53.686;10.094;2023-05-09T01:37:22;101809.75;;;10.87;100.00
19128;BME280;9696;53.686;10.094;2023-05-09T01:39:53;101805.25;;;10.76;100.00
19128;BME280;9696;53.686;10.094;2023-05-09T01:42:24;101798.88;;;10.55;100.00
19128;BME280;9696;53.686;10.094;2023-05-09T01:44:58;101808.72;;;10.64;100.00
19128;BME280;9696;53.686;10.094;2023-05-09T01:47:27;101803.59;;;10.63;100.00
19128;BME280;9696;53.686;10.094;2023-05-09T01:49:57;101802.56;;;10.65;100.00
19128;BME280;9696;53.686;10.094;2023-05-09T01:52:29;101794.47;;;10.56;100.00
19128;BME280;9696;53.686;10.094;2023-05-09T01:55:00;101800.56;;;10.56;100.00
19128;BME280;9696;53.686;10.094;2023-05-09T01:57:30;101797.31;;;10.40;100.00
19128;BME280;9696;53.686;10.094;2023-05-09T02:00:02;101801.72;;;10.39;100.00
19128;BME280;9696;53.686;10.094;2023-05-09T02:02:39;101791.34;;;10.51;100.00
19128;BME280;9696;53.686;10.094;2023-05-09T02:05:11;101801.94;;;10.49;100.00
19128;BME280;9696;53.686;10.094;2023-05-09T02:07:42;101800.25;;;10.35;100.00
19128;BME280;9696;53.686;10.094;2023-05-09T02:10:12;101801.84;;;10.38;100.00
19128;BME280;9696;53.686;10.094;2023-05-09T02:12:43;101801.41;;;10.44;100.00
19128;BME280;9696;53.686;10.094;2023-05-09T02:15:13;101799.00;;;10.54;100.00
19128;BME280;9696;53.686;10.094;2023-05-09T02:17:43;101799.28;;;10.24;100.00
19128;BME280;9696;53.686;10.094;2023-05-09T02:20:14;101799.41;;;10.22;100.00
19128;BME280;9696;53.686;10.094;2023-05-09T02:22:43;101797.63;;;10.23;100.00
19128;BME280;9696;53.686;10.094;2023-05-09T02:25:14;101802.22;;;10.19;100.00
19128;BME280;9696;53.686;10.094;2023-05-09T02:27:45;101795.69;;;10.12;100.00
19128;BME280;9696;53.686;10.094;2023-05-09T02:30:19;101779.47;;;10.20;100.00
19128;BME280;9696;53.686;10.094;2023-05-09T02:32:52;101786.97;;;10.12;100.00
19128;BME280;9696;53.686;10.094;2023-05-09T02:35:24;101782.91;;;9.95;100.00
19128;BME280;9696;53.686;10.094;2023-05-09T02:37:56;101791.41;;;10.11;100.00
19128;BME280;9696;53.686;10.094;2023-05-09T02:40:26;101785.31;;;10.11;100.00
19128;BME280;9696;53.686;10.094;2023-05-09T02:42:56;101776.13;;;10.18;100.00
19128;BME280;9696;53.686;10.094;2023-05-09T02:45:26;101773.66;;;10.02;100.00
19128;BME280;9696;53.686;10.094;2023-05-09T02:47:56;101784.56;;;9.96;100.00
19128;BME280;9696;53.686;10.094;2023-05-09T02:50:25;101771.34;;;9.98;100.00
19128;BME280;9696;53.686;10.094;2023-05-09T02:52:55;101774.88;;;9.71;100.00
19128;BME280;9696;53.686;10.094;2023-05-09T02:55:24;101773.75;;;9.75;100.00
19128;BME280;9696;53.686;10.094;2023-05-09T02:57:53;101770.78;;;9.67;100.00
19128;BME280;9696;53.686;10.094;2023-05-09T03:00:41;101775.41;;;9.64;100.00
19128;BME280;9696;53.686;10.094;2023-05-09T03:03:13;101767.41;;;9.65;100.00
19128;BME280;9696;53.686;10.094;2023-05-09T03:05:44;101766.69;;;9.63;100.00
19128;BME280;9696;53.686;10.094;2023-05-09T03:08:13;101761.00;;;9.57;100.00
19128;BME280;9696;53.686;10.094;2023-05-09T03:10:43;101761.91;;;9.43;100.00
19128;BME280;9696;53.686;10.094;2023-05-09T03:13:13;101765.88;;;9.36;100.00
19128;BME280;9696;53.686;10.094;2023-05-09T03:15:44;101763.41;;;9.20;100.00
19128;BME280;9696;53.686;10.094;2023-05-09T03:18:13;101764.34;;;9.19;100.00
19128;BME280;9696;53.686;10.094;2023-05-09T03:20:42;101760.53;;;9.11;100.00
19128;BME280;9696;53.686;10.094;2023-05-09T03:23:11;101758.19;;;9.06;100.00
19128;BME280;9696;53.686;10.094;2023-05-09T03:25:40;101758.88;;;8.95;100.00
19128;BME280;9696;53.686;10.094;2023-05-09T03:28:10;101755.50;;;8.93;100.00
19128;BME280;9696;53.686;10.094;2023-05-09T03:30:39;101754.78;;;8.91;100.00
19128;BME280;9696;53.686;10.094;2023-05-09T03:33:13;101743.06;;;8.97;100.00
19128;BME280;9696;53.686;10.094;2023-05-09T03:35:42;101734.22;;;8.85;100.00
19128;BME280;9696;53.686;10.094;2023-05-09T03:38:11;101748.41;;;8.95;100.00
19128;BME280;9696;53.686;10.094;2023-05-09T03:40:40;101741.16;;;8.86;100.00
19128;BME280;9696;53.686;10.094;2023-05-09T03:43:11;101730.88;;;8.83;100.00
19128;BME280;9696;53.686;10.094;2023-05-09T03:45:40;101739.56;;;8.84;100.00
19128;BME280;9696;53.686;10.094;2023-05-09T03:48:12;101740.22;;;8.73;100.00
19128;BME280;9696;53.686;10.094;2023-05-09T03:50:47;101737.78;;;8.84;100.00
19128;BME280;9696;53.686;10.094;2023-05-09T03:53:16;101736.84;;;8.85;100.00
19128;BME280;9696;53.686;10.094;2023-05-09T03:55:48;101735.19;;;8.70;100.00
19128;BME280;9696;53.686;10.094;2023-05-09T03:58:18;101732.00;;;8.79;100.00
19128;BME280;9696;53.686;10.094;2023-05-09T04:00:47;101721.34;;;8.82;100.00
19128;BME280;9696;53.686;10.094;2023-05-09T04:03:22;101729.03;;;8.71;100.00
19128;BME280;9696;53.686;10.094;2023-05-09T04:05:53;101724.66;;;8.72;100.00
19128;BME280;9696;53.686;10.094;2023-05-09T04:08:31;101722.19;;;8.83;100.00
19128;BME280;9696;53.686;10.094;2023-05-09T04:11:02;101727.25;;;8.72;100.00
19128;BME280;9696;53.686;10.094;2023-05-09T04:13:32;101733.69;;;8.80;100.00
19128;BME280;9696;53.686;10.094;2023-05-09T04:16:06;101733.72;;;8.93;100.00
19128;BME280;9696;53.686;10.094;2023-05-09T04:18:37;101723.75;;;8.85;100.00
19128;BME280;9696;53.686;10.094;2023-05-09T04:21:06;101725.72;;;8.82;100.00
19128;BME280;9696;53.686;10.094;2023-05-09T04:23:36;101724.75;;;8.97;100.00
19128;BME280;9696;53.686;10.094;2023-05-09T04:26:06;101713.28;;;8.85;100.00
19128;BME280;9696;53.686;10.094;2023-05-09T04:28:36;101716.88;;;8.84;100.00
19128;BME280;9696;53.686;10.094;2023-05-09T04:31:05;101714.25;;;8.84;100.00
19128;BME280;9696;53.686;10.094;2023-05-09T04:33:37;101713.94;;;8.89;100.00
19128;BME280;9696;53.686;10.094;2023-05-09T04:36:07;101720.19;;;9.01;100.00
19128;BME280;9696;53.686;10.094;2023-05-09T04:38:36;101719.34;;;9.00;100.00
19128;BME280;9696;53.686;10.094;2023-05-09T04:41:10;101710.38;;;9.04;100.00
19128;BME280;9696;53.686;10.094;2023-05-09T04:43:39;101716.97;;;9.10;100.00
19128;BME280;9696;53.686;10.094;2023-05-09T04:46:09;101706.28;;;9.13;100.00
19128;BME280;9696;53.686;10.094;2023-05-09T04:48:40;101706.19;;;9.14;100.00
19128;BME280;9696;53.686;10.094;2023-05-09T04:51:09;101709.56;;;9.16;100.00
19128;BME280;9696;53.686;10.094;2023-05-09T04:53:38;101708.31;;;9.22;100.00
19128;BME280;9696;53.686;10.094;2023-05-09T04:56:07;101709.72;;;9.27;100.00
19128;BME280;9696;53.686;10.094;2023-05-09T04:58:36;101707.81;;;9.29;100.00
19128;BME280;9696;53.686;10.094;2023-05-09T05:01:09;101706.66;;;9.33;100.00
19128;BME280;9696;53.686;10.094;2023-05-09T05:03:41;101696.03;;;9.49;100.00
19128;BME280;9696;53.686;10.094;2023-05-09T05:06:11;101690.28;;;9.44;100.00
19128;BME280;9696;53.686;10.094;2023-05-09T05:08:42;101687.03;;;9.53;100.00
19128;BME280;9696;53.686;10.094;2023-05-09T05:11:11;101677.63;;;9.63;100.00
19128;BME280;9696;53.686;10.094;2023-05-09T05:13:41;101683.59;;;9.78;100.00
19128;BME280;9696;53.686;10.094;2023-05-09T05:16:11;101673.66;;;10.21;100.00
19128;BME280;9696;53.686;10.094;2023-05-09T05:18:42;101666.75;;;10.56;100.00
19128;BME280;9696;53.686;10.094;2023-05-09T05:21:12;101658.94;;;10.67;100.00
19128;BME280;9696;53.686;10.094;2023-05-09T05:23:44;101657.91;;;10.94;100.00
19128;BME280;9696;53.686;10.094;2023-05-09T05:26:14;101661.41;;;11.29;100.00
19128;BME280;9696;53.686;10.094;2023-05-09T05:28:43;101655.38;;;11.16;100.00
19128;BME280;9696;53.686;10.094;2023-05-09T05:31:13;101653.97;;;11.23;100.00
19128;BME280;9696;53.686;10.094;2023-05-09T05:33:44;101646.28;;;11.44;100.00
19128;BME280;9696;53.686;10.094;2023-05-09T05:36:13;101650.56;;;11.91;100.00
19128;BME280;9696;53.686;10.094;2023-05-09T05:38:42;101653.81;;;11.48;100.00
19128;BME280;9696;53.686;10.094;2023-05-09T05:41:12;101655.34;;;11.40;100.00
19128;BME280;9696;53.686;10.094;2023-05-09T05:43:43;101646.16;;;11.45;100.00
19128;BME280;9696;53.686;10.094;2023-05-09T05:46:13;101644.16;;;11.71;100.00
19128;BME280;9696;53.686;10.094;2023-05-09T05:48:44;101634.06;;;11.43;100.00
19128;BME280;9696;53.686;10.094;2023-05-09T05:51:13;101630.72;;;11.98;100.00
19128;BME280;9696;53.686;10.094;2023-05-09T05:53:43;101634.03;;;11.77;100.00
19128;BME280;9696;53.686;10.094;2023-05-09T05:56:13;101635.72;;;11.78;100.00
19128;BME280;9696;53.686;10.094;2023-05-09T05:58:42;101631.78;;;11.73;100.00
19128;BME280;9696;53.686;10.094;2023-05-09T06:01:11;101632.13;;;12.13;100.00
19128;BME280;9696;53.686;10.094;2023-05-09T06:03:41;101629.16;;;12.17;100.00
19128;BME280;9696;53.686;10.094;2023-05-09T06:06:12;101641.13;;;11.99;100.00
19128;BME280;9696;53.686;10.094;2023-05-09T06:08:41;101627.47;;;12.39;100.00
19128;BME280;9696;53.686;10.094;2023-05-09T06:11:11;101631.91;;;12.81;100.00
19128;BME280;9696;53.686;10.094;2023-05-09T06:13:40;101638.28;;;12.67;100.00
19128;BME280;9696;53.686;10.094;2023-05-09T06:16:11;101624.34;;;12.88;100.00
19128;BME280;9696;53.686;10.094;2023-05-09T06:18:49;101613.31;;;12.51;100.00
19128;BME280;9696;53.686;10.094;2023-05-09T06:21:23;101622.91;;;12.41;100.00
19128;BME280;9696;53.686;10.094;2023-05-09T06:23:53;101620.59;;;12.58;100.00
19128;BME280;9696;53.686;10.094;2023-05-09T06:26:36;101618.88;;;12.80;100.00
19128;BME280;9696;53.686;10.094;2023-05-09T06:29:09;101617.06;;;12.26;100.00
19128;BME280;9696;53.686;10.094;2023-05-09T06:31:41;101628.47;;;13.01;100.00
19128;BME280;9696;53.686;10.094;2023-05-09T06:34:10;101625.50;;;12.95;100.00
19128;BME280;9696;53.686;10.094;2023-05-09T06:36:40;101623.72;;;12.52;100.00
19128;BME280;9696;53.686;10.094;2023-05-09T06:39:09;101613.09;;;12.86;100.00
19128;BME280;9696;53.686;10.094;2023-05-09T06:41:38;101600.22;;;12.71;100.00
19128;BME280;9696;53.686;10.094;2023-05-09T06:44:07;101598.91;;;13.30;100.00
19128;BME280;9696;53.686;10.094;2023-05-09T06:46:37;101593.91;;;13.78;100.00
19128;BME280;9696;53.686;10.094;2023-05-09T06:49:06;101594.06;;;13.55;100.00
19128;BME280;9696;53.686;10.094;2023-05-09T06:51:36;101589.00;;;13.43;100.00
19128;BME280;9696;53.686;10.094;2023-05-09T06:54:06;101584.25;;;13.67;100.00
19128;BME280;9696;53.686;10.094;2023-05-09T06:56:36;101568.66;;;13.85;100.00
19128;BME280;9696;53.686;10.094;2023-05-09T06:59:05;101567.53;;;14.18;100.00
19128;BME280;9696;53.686;10.094;2023-05-09T07:01:34;101565.78;;;13.57;100.00
19128;BME280;9696;53.686;10.094;2023-05-09T07:04:03;101564.06;;;14.27;100.00
19128;BME280;9696;53.686;10.094;2023-05-09T07:06:32;101560.91;;;14.42;100.00
19128;BME280;9696;53.686;10.094;2023-05-09T07:09:03;101553.56;;;13.96;100.00
19128;BME280;9696;53.686;10.094;2023-05-09T07:11:37;101556.88;;;14.38;100.00
19128;BME280;9696;53.686;10.094;2023-05-09T07:14:06;101548.16;;;14.67;100.00
19128;BME280;9696;53.686;10.094;2023-05-09T07:16:35;101543.69;;;14.48;100.00
19128;BME280;9696;53.686;10.094;2023-05-09T07:19:04;101552.47;;;14.68;100.00
19128;BME280;9696;53.686;10.094;2023-05-09T07:21:33;101541.91;;;14.87;100.00
19128;BME280;9696;53.686;10.094;2023-05-09T07:24:03;101541.69;;;15.27;100.00
19128;BME280;9696;53.686;10.094;2023-05-09T07:26:33;101547.94;;;15.26;100.00
19128;BME280;9696;53.686;10.094;2023-05-09T07:29:04;101546.19;;;15.63;100.00
19128;BME280;9696;53.686;10.094;2023-05-09T07:31:33;101541.56;;;16.02;100.00
19128;BME280;9696;53.686;10.094;2023-05-09T07:34:04;101538.63;;;15.31;100.00
19128;BME280;9696;53.686;10.094;2023-05-09T07:36:33;101527.44;;;15.47;100.00
19128;BME280;9696;53.686;10.094;2023-05-09T07:39:05;101523.97;;;16.28;100.00
19128;BME280;9696;53.686;10.094;2023-05-09T07:41:34;101530.56;;;15.23;100.00
19128;BME280;9696;53.686;10.094;2023-05-09T07:44:05;101524.44;;;15.32;100.00
19128;BME280;9696;53.686;10.094;2023-05-09T07:46:36;101517.78;;;15.28;100.00
19128;BME280;9696;53.686;10.094;2023-05-09T07:49:07;101506.22;;;15.66;100.00
19128;BME280;9696;53.686;10.094;2023-05-09T07:51:37;101503.03;;;15.90;100.00
19128;BME280;9696;53.686;10.094;2023-05-09T07:54:06;101494.38;;;16.33;100.00
19128;BME280;9696;53.686;10.094;2023-05-09T07:56:36;101487.78;;;16.01;100.00
19128;BME280;9696;53.686;10.094;2023-05-09T07:59:07;101483.03;;;16.05;100.00
19128;BME280;9696;53.686;10.094;2023-05-09T08:01:36;101478.28;;;16.44;100.00
19128;BME280;9696;53.686;10.094;2023-05-09T08:04:05;101483.06;;;15.78;100.00
19128;BME280;9696;53.686;10.094;2023-05-09T08:06:36;101474.03;;;15.98;100.00
19128;BME280;9696;53.686;10.094;2023-05-09T08:09:05;101484.47;;;16.52;100.00
19128;BME280;9696;53.686;10.094;2023-05-09T08:11:35;101477.72;;;16.93;100.00
19128;BME280;9696;53.686;10.094;2023-05-09T08:14:06;101473.38;;;16.31;100.00
19128;BME280;9696;53.686;10.094;2023-05-09T08:16:35;101467.63;;;16.97;100.00
19128;BME280;9696;53.686;10.094;2023-05-09T08:19:04;101466.78;;;17.56;100.00
19128;BME280;9696;53.686;10.094;2023-05-09T08:21:33;101455.56;;;17.70;100.00
19128;BME280;9696;53.686;10.094;2023-05-09T08:24:03;101454.94;;;17.76;100.00
19128;BME280;9696;53.686;10.094;2023-05-09T08:26:34;101455.13;;;17.83;100.00
19128;BME280;9696;53.686;10.094;2023-05-09T08:29:03;101450.09;;;17.04;100.00
19128;BME280;9696;53.686;10.094;2023-05-09T08:31:34;101437.69;;;17.72;100.00
19128;BME280;9696;53.686;10.094;2023-05-09T08:34:04;101439.22;;;17.15;100.00
19128;BME280;9696;53.686;10.094;2023-05-09T08:36:33;101435.81;;;17.65;100.00
19128;BME280;9696;53.686;10.094;2023-05-09T08:39:03;101435.94;;;18.05;100.00
19128;BME280;9696;53.686;10.094;2023-05-09T08:41:33;101436.19;;;17.78;100.00
19128;BME280;9696;53.686;10.094;2023-05-09T08:44:03;101434.44;;;18.11;100.00
19128;BME280;9696;53.686;10.094;2023-05-09T08:46:37;101427.66;;;18.49;100.00
19128;BME280;9696;53.686;10.094;2023-05-09T08:49:07;101426.47;;;18.35;100.00
19128;BME280;9696;53.686;10.094;2023-05-09T08:51:37;101421.16;;;18.19;100.00
19128;BME280;9696;53.686;10.094;2023-05-09T08:54:07;101419.66;;;18.65;100.00
19128;BME280;9696;53.686;10.094;2023-05-09T08:56:38;101427.81;;;18.39;100.00
19128;BME280;9696;53.686;10.094;2023-05-09T08:59:08;101420.31;;;18.10;100.00
19128;BME280;9696;53.686;10.094;2023-05-09T09:01:38;101425.25;;;19.10;97.45
19128;BME280;9696;53.686;10.094;2023-05-09T09:04:09;101407.53;;;18.30;99.29
19128;BME280;9696;53.686;10.094;2023-05-09T09:06:39;101415.03;;;18.59;99.41
19128;BME280;9696;53.686;10.094;2023-05-09T09:09:10;101396.88;;;18.87;95.06
19128;BME280;9696;53.686;10.094;2023-05-09T09:11:42;101407.16;;;18.90;94.99
19128;BME280;9696;53.686;10.094;2023-05-09T09:14:14;101401.13;;;19.12;95.21
19128;BME280;9696;53.686;10.094;2023-05-09T09:16:46;101410.78;;;19.52;93.31
19128;BME280;9696;53.686;10.094;2023-05-09T09:19:17;101404.00;;;19.49;91.40
19128;BME280;9696;53.686;10.094;2023-05-09T09:21:47;101409.22;;;19.26;93.27
19128;BME280;9696;53.686;10.094;2023-05-09T09:24:21;101401.34;;;18.94;92.91
19128;BME280;9696;53.686;10.094;2023-05-09T09:26:51;101390.38;;;18.89;94.55
19128;BME280;9696;53.686;10.094;2023-05-09T09:29:20;101399.38;;;19.43;92.14
19128;BME280;9696;53.686;10.094;2023-05-09T09:31:53;101405.78;;;19.57;93.68
19128;BME280;9696;53.686;10.094;2023-05-09T09:34:23;101395.31;;;19.00;92.52
19128;BME280;9696;53.686;10.094;2023-05-09T09:36:52;101392.06;;;18.82;92.33
19128;BME280;9696;53.686;10.094;2023-05-09T09:39:21;101391.38;;;18.96;94.96
19128;BME280;9696;53.686;10.094;2023-05-09T09:41:50;101390.09;;;18.84;93.74
19128;BME280;9696;53.686;10.094;2023-05-09T09:44:21;101381.59;;;18.80;92.97
19128;BME280;9696;53.686;10.094;2023-05-09T09:46:52;101370.19;;;20.03;89.83
19128;BME280;9696;53.686;10.094;2023-05-09T09:49:23;101370.81;;;19.60;89.30
19128;BME280;9696;53.686;10.094;2023-05-09T09:51:53;101372.31;;;19.23;90.28
19128;BME280;9696;53.686;10.094;2023-05-09T09:54:26;101358.47;;;19.28;88.16
19128;BME280;9696;53.686;10.094;2023-05-09T09:56:56;101369.19;;;19.59;87.88
19128;BME280;9696;53.686;10.094;2023-05-09T09:59:26;101358.84;;;19.87;86.61
19128;BME280;9696;53.686;10.094;2023-05-09T10:01:58;101348.91;;;20.41;90.79
19128;BME280;9696;53.686;10.094;2023-05-09T10:04:29;101342.88;;;20.61;86.00
19128;BME280;9696;53.686;10.094;2023-05-09T10:07:00;101346.94;;;19.97;81.90
19128;BME280;9696;53.686;10.094;2023-05-09T10:09:30;101344.78;;;20.53;84.99
19128;BME280;9696;53.686;10.094;2023-05-09T10:12:02;101341.50;;;20.80;80.50
19128;BME280;9696;53.686;10.094;2023-05-09T10:14:34;101338.84;;;20.65;80.65
19128;BME280;9696;53.686;10.094;2023-05-09T10:17:05;101361.53;;;20.61;79.86
19128;BME280;9696;53.686;10.094;2023-05-09T10:19:35;101342.47;;;20.35;79.41
19128;BME280;9696;53.686;10.094;2023-05-09T10:22:08;101341.84;;;20.48;82.01
19128;BME280;9696;53.686;10.094;2023-05-09T10:24:41;101337.50;;;20.09;77.12
19128;BME280;9696;53.686;10.094;2023-05-09T10:27:18;101340.09;;;20.40;71.54
19128;BME280;9696;53.686;10.094;2023-05-09T10:30:02;101329.44;;;20.40;68.38
19128;BME280;9696;53.686;10.094;2023-05-09T10:32:40;101325.94;;;20.40;71.10
19128;BME280;9696;53.686;10.094;2023-05-09T10:35:11;101310.34;;;20.66;68.15
19128;BME280;9696;53.686;10.094;2023-05-09T10:37:44;101291.88;;;21.51;67.42
19128;BME280;9696;53.686;10.094;2023-05-09T10:40:14;101301.22;;;20.75;74.79
19128;BME280;9696;53.686;10.094;2023-05-09T10:42:44;101282.69;;;21.81;76.37
19128;BME280;9696;53.686;10.094;2023-05-09T10:45:13;101292.47;;;20.37;75.67
19128;BME280;9696;53.686;10.094;2023-05-09T10:47:45;101280.44;;;21.36;78.83
19128;BME280;9696;53.686;10.094;2023-05-09T10:50:15;101277.06;;;21.48;74.14
19128;BME280;9696;53.686;10.094;2023-05-09T10:53:04;101274.97;;;21.44;74.30
19128;BME280;9696;53.686;10.094;2023-05-09T10:55:38;101265.91;;;20.73;69.96
19128;BME280;9696;53.686;10.094;2023-05-09T10:58:24;101267.78;;;21.44;78.91
19128;BME280;9696;53.686;10.094;2023-05-09T11:00:56;101258.81;;;21.94;71.76
19128;BME280;9696;53.686;10.094;2023-05-09T11:03:28;101250.41;;;21.34;75.69
19128;BME280;9696;53.686;10.094;2023-05-09T11:06:44;101241.56;;;21.76;76.47
19128;BME280;9696;53.686;10.094;2023-05-09T11:09:23;101233.59;;;22.03;67.39
19128;BME280;9696;53.686;10.094;2023-05-09T11:11:54;101240.88;;;21.46;68.85
19128;BME280;9696;53.686;10.094;2023-05-09T11:14:32;101233.22;;;21.85;73.04
19128;BME280;9696;53.686;10.094;2023-05-09T11:17:02;101227.97;;;21.49;67.17
19128;BME280;9696;53.686;10.094;2023-05-09T11:19:56;101220.69;;;21.15;66.96
19128;BME280;9696;53.686;10.094;2023-05-09T11:22:27;101223.94;;;21.81;70.22
19128;BME280;9696;53.686;10.094;2023-05-09T11:25:03;101213.09;;;22.11;71.91
19128;BME280;9696;53.686;10.094;2023-05-09T11:27:41;101205.00;;;21.76;59.56
19128;BME280;9696;53.686;10.094;2023-05-09T11:30:12;101204.41;;;21.81;59.91
19128;BME280;9696;53.686;10.094;2023-05-09T11:32:44;101191.59;;;21.70;59.00
19128;BME280;9696;53.686;10.094;2023-05-09T11:35:16;101195.53;;;22.77;54.14
19128;BME280;9696;53.686;10.094;2023-05-09T11:37:48;101187.63;;;22.15;55.53
19128;BME280;9696;53.686;10.094;2023-05-09T11:40:19;101184.72;;;22.57;57.79
19128;BME280;9696;53.686;10.094;2023-05-09T11:42:50;101189.81;;;21.28;59.85
19128;BME280;9696;53.686;10.094;2023-05-09T11:45:24;101188.59;;;21.79;61.54
19128;BME280;9696;53.686;10.094;2023-05-09T11:47:53;101177.47;;;21.27;56.78
19128;BME280;9696;53.686;10.094;2023-05-09T11:50:25;101169.88;;;21.51;54.38
19128;BME280;9696;53.686;10.094;2023-05-09T11:52:54;101160.00;;;21.24;56.26
19128;BME280;9696;53.686;10.094;2023-05-09T11:55:23;101165.16;;;22.09;56.48
19128;BME280;9696;53.686;10.094;2023-05-09T11:57:58;101160.47;;;20.92;57.47
19128;BME280;9696;53.686;10.094;2023-05-09T12:00:27;101161.47;;;21.82;55.73
19128;BME280;9696;53.686;10.094;2023-05-09T12:02:56;101157.56;;;22.13;54.99
19128;BME280;9696;53.686;10.094;2023-05-09T12:05:27;101157.16;;;21.11;56.42
19128;BME280;9696;53.686;10.094;2023-05-09T12:08:02;101155.63;;;21.17;54.07
19128;BME280;9696;53.686;10.094;2023-05-09T12:10:36;101152.59;;;21.47;48.34
19128;BME280;9696;53.686;10.094;2023-05-09T12:13:06;101146.69;;;21.52;53.13
19128;BME280;9696;53.686;10.094;2023-05-09T12:15:38;101144.00;;;21.52;52.58
19128;BME280;9696;53.686;10.094;2023-05-09T12:18:09;101136.81;;;21.80;54.54
19128;BME280;9696;53.686;10.094;2023-05-09T12:20:46;101128.44;;;21.55;52.76
19128;BME280;9696;53.686;10.094;2023-05-09T12:23:17;101130.91;;;22.80;58.36
19128;BME280;9696;53.686;10.094;2023-05-09T12:25:47;101130.75;;;21.65;55.48
19128;BME280;9696;53.686;10.094;2023-05-09T12:28:17;101121.63;;;22.15;53.39
19128;BME280;9696;53.686;10.094;2023-05-09T12:30:47;101116.09;;;21.89;53.44
19128;BME280;9696;53.686;10.094;2023-05-09T12:33:18;101126.50;;;22.52;55.88
19128;BME280;9696;53.686;10.094;2023-05-09T12:36:00;101126.56;;;22.18;52.65
19128;BME280;9696;53.686;10.094;2023-05-09T12:38:31;101133.16;;;22.16;50.10
19128;BME280;9696;53.686;10.094;2023-05-09T12:41:01;101130.56;;;21.94;53.88
19128;BME280;9696;53.686;10.094;2023-05-09T12:43:31;101134.09;;;21.74;56.70
19128;BME280;9696;53.686;10.094;2023-05-09T12:46:01;101132.44;;;22.00;52.26
19128;BME280;9696;53.686;10.094;2023-05-09T12:48:36;101126.50;;;22.05;53.56
19128;BME280;9696;53.686;10.094;2023-05-09T12:51:07;101130.22;;;21.76;51.32
19128;BME280;9696;53.686;10.094;2023-05-09T12:53:40;101124.13;;;21.89;52.12
19128;BME280;9696;53.686;10.094;2023-05-09T12:56:14;101137.19;;;21.77;55.18
19128;BME280;9696;53.686;10.094;2023-05-09T12:58:50;101125.22;;;21.67;51.01
19128;BME280;9696;53.686;10.094;2023-05-09T13:01:21;101137.84;;;21.51;51.13
19128;BME280;9696;53.686;10.094;2023-05-09T13:03:51;101125.94;;;21.54;55.03
19128;BME280;9696;53.686;10.094;2023-05-09T13:06:22;101115.97;;;21.69;52.55
19128;BME280;9696;53.686;10.094;2023-05-09T13:08:57;101107.66;;;22.74;57.81